createdAt,value
2023-01-25T00:00:14.159Z,89.67
2023-01-25T00:02:42.872Z,89.74
2023-01-25T00:05:11.875Z,89.76
2023-01-25T00:07:41.938Z,89.69
2023-01-25T00:10:12.420Z,89.69
2023-01-25T00:12:41.405Z,89.66
2023-01-25T00:15:11.323Z,89.58
2023-01-25T00:17:39.921Z,89.78
2023-01-25T00:20:11.753Z,89.78
2023-01-25T00:22:42.501Z,89.69
2023-01-25T00:25:11.849Z,89.80
2023-01-25T00:27:41.760Z,89.76
2023-01-25T00:30:12.239Z,89.78
2023-01-25T00:32:55.159Z,89.77
2023-01-25T00:35:32.824Z,89.85
2023-01-25T00:38:07.509Z,89.80
2023-01-25T00:40:36.140Z,89.78
2023-01-25T00:43:04.786Z,89.83
2023-01-25T00:45:33.695Z,89.84
2023-01-25T00:48:02.348Z,89.74
2023-01-25T00:50:31.806Z,89.68
2023-01-25T00:53:00.458Z,89.67
2023-01-25T00:55:30.630Z,89.52
2023-01-25T00:57:59.294Z,89.69
2023-01-25T01:00:27.979Z,89.70
2023-01-25T01:02:57.180Z,89.57
2023-01-25T01:05:27.568Z,89.56
2023-01-25T01:07:58.016Z,89.41
2023-01-25T01:10:26.746Z,89.39
2023-01-25T01:12:56.840Z,89.40
2023-01-25T01:15:25.412Z,89.43
2023-01-25T01:17:54.071Z,89.46
2023-01-25T01:20:22.780Z,89.37
2023-01-25T01:22:55.539Z,89.41
2023-01-25T01:25:24.214Z,89.28
2023-01-25T01:27:52.899Z,89.17
2023-01-25T01:30:23.740Z,89.05
2023-01-25T01:32:53.183Z,89.18
2023-01-25T01:35:21.993Z,89.01
2023-01-25T01:37:50.627Z,88.86
2023-01-25T01:40:19.666Z,88.89
2023-01-25T01:42:59.776Z,88.82
2023-01-25T01:45:55.547Z,88.89
2023-01-25T01:48:39.337Z,88.65
2023-01-25T01:51:20.586Z,88.62
2023-01-25T01:53:56.132Z,88.62
2023-01-25T01:56:32.629Z,88.56
2023-01-25T01:59:08.039Z,88.63
2023-01-25T02:01:39.012Z,88.65
2023-01-25T02:04:10.582Z,88.61
2023-01-25T02:06:48.132Z,88.58
2023-01-25T02:09:22.585Z,88.53
2023-01-25T02:11:54.858Z,88.43
2023-01-25T02:14:25.063Z,88.43
2023-01-25T02:16:55.478Z,88.36
2023-01-25T02:19:42.729Z,88.32
2023-01-25T02:22:17.246Z,88.22
2023-01-25T02:24:58.639Z,88.14
2023-01-25T02:27:27.467Z,88.12
2023-01-25T02:29:56.285Z,88.23
2023-01-25T02:32:24.892Z,88.16
2023-01-25T02:34:54.921Z,88.15
2023-01-25T02:37:23.719Z,88.10
2023-01-25T02:39:54.085Z,88.22
2023-01-25T02:42:26.759Z,88.19
2023-01-25T02:44:55.598Z,88.07
2023-01-25T02:47:25.777Z,88.06
2023-01-25T02:49:54.498Z,88.10
2023-01-25T02:52:23.162Z,88.16
2023-01-25T02:54:52.027Z,88.16
2023-01-25T02:57:23.105Z,88.21
2023-01-25T02:59:53.358Z,88.16
2023-01-25T03:02:22.577Z,88.02
2023-01-25T03:04:52.395Z,87.98
2023-01-25T03:07:21.134Z,87.93
2023-01-25T03:09:49.751Z,88.01
2023-01-25T03:12:18.385Z,88.04
2023-01-25T03:14:47.962Z,88.04
2023-01-25T03:17:18.028Z,87.89
2023-01-25T03:19:47.420Z,88.00
2023-01-25T03:22:16.125Z,88.01
2023-01-25T03:24:45.337Z,87.78
2023-01-25T03:27:17.180Z,87.77
2023-01-25T03:30:10.746Z,87.70
2023-01-25T03:32:40.876Z,87.65
2023-01-25T03:35:12.945Z,87.76
2023-01-25T03:37:42.966Z,87.58
2023-01-25T03:40:13.391Z,87.56
2023-01-25T03:42:46.296Z,87.54
2023-01-25T03:45:15.441Z,87.64
2023-01-25T03:47:45.652Z,87.69
2023-01-25T03:50:14.365Z,87.63
2023-01-25T03:53:02.670Z,87.63
2023-01-25T03:55:33.627Z,87.68
2023-01-25T03:58:02.539Z,87.74
2023-01-25T04:00:31.284Z,88.03
2023-01-25T04:03:04.115Z,88.22
2023-01-25T04:05:32.824Z,88.17
2023-01-25T04:08:02.140Z,88.38
2023-01-25T04:10:37.319Z,88.48
2023-01-25T04:13:06.974Z,88.47
2023-01-25T04:15:36.610Z,88.58
2023-01-25T04:18:14.315Z,88.36
2023-01-25T04:20:43.388Z,88.54
2023-01-25T04:23:13.070Z,88.49
2023-01-25T04:25:43.216Z,88.53
2023-01-25T04:28:17.010Z,88.47
2023-01-25T04:30:46.211Z,88.55
2023-01-25T04:33:17.025Z,88.34
2023-01-25T04:35:47.090Z,88.38
2023-01-25T04:38:18.108Z,88.47
2023-01-25T04:40:47.688Z,88.48
2023-01-25T04:43:20.205Z,88.34
2023-01-25T04:45:50.939Z,88.21
2023-01-25T04:48:28.991Z,88.30
2023-01-25T04:51:01.761Z,88.21
2023-01-25T04:53:30.411Z,88.27
2023-01-25T04:56:02.467Z,88.22
2023-01-25T04:58:35.917Z,88.19
2023-01-25T05:01:05.970Z,88.09
2023-01-25T05:03:36.150Z,88.04
2023-01-25T05:06:07.274Z,87.93
2023-01-25T05:08:36.134Z,87.89
2023-01-25T05:11:05.381Z,87.82
2023-01-25T05:13:46.924Z,87.82
2023-01-25T05:16:21.362Z,87.69
2023-01-25T05:18:51.444Z,87.87
2023-01-25T05:21:42.514Z,87.83
2023-01-25T05:24:13.686Z,87.79
2023-01-25T05:27:02.003Z,87.70
2023-01-25T05:29:43.190Z,87.75
2023-01-25T05:32:15.421Z,87.81
2023-01-25T05:34:46.355Z,87.76
2023-01-25T05:37:18.609Z,87.68
2023-01-25T05:39:49.474Z,87.72
2023-01-25T05:42:20.272Z,87.64
2023-01-25T05:44:49.477Z,87.61
2023-01-25T05:47:19.736Z,87.59
2023-01-25T05:49:55.475Z,87.61
2023-01-25T05:52:40.190Z,87.38
2023-01-25T05:55:10.445Z,87.33
2023-01-25T05:57:39.986Z,87.34
2023-01-25T06:00:10.698Z,87.46
2023-01-25T06:02:45.227Z,87.40
2023-01-25T06:05:19.991Z,87.59
2023-01-25T06:07:48.718Z,87.45
2023-01-25T06:10:18.975Z,87.62
2023-01-25T06:12:51.032Z,87.70
2023-01-25T06:15:19.903Z,87.75
2023-01-25T06:17:48.723Z,88.13
2023-01-25T06:20:30.270Z,88.33
2023-01-25T06:23:07.667Z,88.63
2023-01-25T06:25:36.323Z,88.68
2023-01-25T06:28:05.142Z,89.04
2023-01-25T06:30:33.989Z,89.17
2023-01-25T06:33:03.647Z,89.31
2023-01-25T06:35:35.432Z,89.35
2023-01-25T06:38:04.072Z,89.60
2023-01-25T06:40:34.440Z,89.75
2023-01-25T06:43:08.697Z,89.79
2023-01-25T06:45:37.473Z,89.74
2023-01-25T06:48:06.357Z,89.92
2023-01-25T06:50:36.354Z,89.67
2023-01-25T06:53:04.981Z,89.69
2023-01-25T06:55:33.617Z,89.72
2023-01-25T06:58:02.626Z,89.65
2023-01-25T07:00:31.386Z,89.48
2023-01-25T07:03:00.129Z,89.48
2023-01-25T07:05:28.752Z,89.29
2023-01-25T07:08:00.548Z,89.29
2023-01-25T07:10:29.238Z,89.16
2023-01-25T07:12:57.872Z,89.02
2023-01-25T07:15:26.547Z,88.59
2023-01-25T07:17:57.929Z,88.15
2023-01-25T07:20:29.839Z,88.08
2023-01-25T07:23:02.277Z,87.81
2023-01-25T07:25:30.955Z,87.68
2023-01-25T07:27:59.580Z,87.50
2023-01-25T07:30:28.262Z,87.36
2023-01-25T07:32:56.861Z,87.24
2023-01-25T07:35:25.590Z,87.02
2023-01-25T07:37:54.373Z,87.06
2023-01-25T07:40:25.488Z,86.97
2023-01-25T07:42:54.625Z,86.96
2023-01-25T07:45:30.177Z,86.89
2023-01-25T07:48:00.511Z,87.00
2023-01-25T07:50:30.521Z,87.15
2023-01-25T07:53:01.285Z,87.19
2023-01-25T07:55:32.313Z,87.27
2023-01-25T07:58:01.831Z,87.34
2023-01-25T08:00:30.573Z,87.46
2023-01-25T08:02:59.460Z,87.39
2023-01-25T08:05:28.183Z,87.69
2023-01-25T08:07:56.775Z,87.74
2023-01-25T08:10:25.614Z,87.77
2023-01-25T08:12:56.131Z,87.87
2023-01-25T08:15:27.131Z,87.99
2023-01-25T08:17:56.541Z,88.00
2023-01-25T08:20:25.264Z,87.87
2023-01-25T08:22:54.208Z,87.95
2023-01-25T08:25:22.918Z,87.88
2023-01-25T08:27:53.187Z,87.93
2023-01-25T08:30:23.419Z,87.99
2023-01-25T08:32:52.124Z,87.98
2023-01-25T08:35:20.757Z,88.04
2023-01-25T08:37:49.364Z,88.20
2023-01-25T08:40:18.700Z,88.14
2023-01-25T08:42:47.368Z,88.21
2023-01-25T08:45:16.168Z,88.12
2023-01-25T08:47:46.210Z,88.13
2023-01-25T08:50:14.881Z,87.93
2023-01-25T08:52:43.524Z,88.15
2023-01-25T08:55:12.192Z,88.12
2023-01-25T08:57:42.189Z,88.09
2023-01-25T09:00:12.771Z,88.09
2023-01-25T09:02:41.849Z,88.07
2023-01-25T09:05:12.174Z,88.05
2023-01-25T09:07:40.871Z,87.95
2023-01-25T09:10:11.565Z,87.94
2023-01-25T09:12:41.686Z,87.93
2023-01-25T09:15:11.332Z,87.96
2023-01-25T09:17:40.236Z,88.07
2023-01-25T09:20:12.554Z,88.04
2023-01-25T09:22:41.184Z,87.97
2023-01-25T09:25:10.599Z,87.98
2023-01-25T09:27:39.483Z,87.93
2023-01-25T09:30:18.258Z,87.97
2023-01-25T09:32:51.636Z,87.97
2023-01-25T09:35:22.234Z,87.97
2023-01-25T09:37:53.448Z,87.85
2023-01-25T09:40:28.422Z,87.63
2023-01-25T09:43:05.341Z,87.70
2023-01-25T09:45:36.477Z,87.77
2023-01-25T09:48:22.021Z,87.76
2023-01-25T09:51:20.725Z,87.65
2023-01-25T09:53:52.646Z,87.88
2023-01-25T09:56:27.379Z,87.80
2023-01-25T09:59:01.248Z,87.79
2023-01-25T10:01:40.951Z,87.66
2023-01-25T10:04:19.027Z,87.68
2023-01-25T10:07:00.655Z,87.59
2023-01-25T10:09:42.694Z,87.70
2023-01-25T10:12:21.521Z,87.69
2023-01-25T10:14:50.724Z,87.71
2023-01-25T10:17:33.313Z,87.82
2023-01-25T10:20:20.380Z,87.74
2023-01-25T10:22:58.745Z,87.71
2023-01-25T10:25:37.490Z,87.73
2023-01-25T10:28:24.622Z,87.76
2023-01-25T10:31:02.303Z,87.69
2023-01-25T10:33:37.009Z,87.84
2023-01-25T10:36:08.068Z,87.94
2023-01-25T10:38:42.823Z,87.93
2023-01-25T10:41:19.899Z,87.77
2023-01-25T10:44:08.683Z,88.12
2023-01-25T10:46:39.521Z,88.15
2023-01-25T10:49:24.427Z,88.09
2023-01-25T10:51:53.162Z,88.20
2023-01-25T10:54:25.442Z,88.04
2023-01-25T10:56:54.613Z,88.29
2023-01-25T10:59:26.810Z,88.35
2023-01-25T11:01:56.141Z,88.49
2023-01-25T11:04:38.348Z,88.53
2023-01-25T11:07:07.382Z,88.56
2023-01-25T11:09:40.475Z,88.65
2023-01-25T11:12:21.480Z,88.72
2023-01-25T11:14:52.032Z,88.62
2023-01-25T11:17:32.643Z,88.70
2023-01-25T11:20:19.248Z,88.63
2023-01-25T11:22:57.701Z,88.97
2023-01-25T11:25:32.195Z,89.01
2023-01-25T11:28:19.829Z,89.06
2023-01-25T11:30:50.454Z,89.20
2023-01-25T11:33:22.604Z,89.22
2023-01-25T11:36:12.192Z,89.08
2023-01-25T11:38:55.662Z,89.12
2023-01-25T11:41:35.237Z,89.30
2023-01-25T11:44:42.467Z,89.41
2023-01-25T11:47:28.587Z,89.42
2023-01-25T11:50:12.736Z,89.35
2023-01-25T11:53:11.583Z,89.37
2023-01-25T11:55:50.995Z,89.62
2023-01-25T11:58:41.036Z,89.71
2023-01-25T12:01:22.411Z,89.61
2023-01-25T12:04:51.038Z,89.75
2023-01-25T12:07:33.046Z,89.80
2023-01-25T12:10:19.293Z,89.73
2023-01-25T12:13:01.095Z,89.76
2023-01-25T12:16:10.413Z,89.75
2023-01-25T12:19:19.304Z,89.55
2023-01-25T12:22:13.931Z,89.73
2023-01-25T12:24:57.044Z,89.74
2023-01-25T12:27:42.412Z,89.87
2023-01-25T12:30:22.625Z,90.03
2023-01-25T12:33:09.034Z,89.97
2023-01-25T12:35:47.633Z,90.13
2023-01-25T12:38:25.593Z,90.11
2023-01-25T12:41:00.733Z,90.04
2023-01-25T12:43:38.369Z,90.11
2023-01-25T12:46:17.330Z,90.01
2023-01-25T12:48:53.823Z,90.25
2023-01-25T12:51:25.782Z,90.28
2023-01-25T12:53:56.328Z,90.17
2023-01-25T12:56:40.815Z,90.30
2023-01-25T12:59:21.761Z,90.36
2023-01-25T13:01:58.212Z,90.43
2023-01-25T13:04:56.913Z,90.32
2023-01-25T13:07:36.235Z,90.62
2023-01-25T13:10:16.044Z,90.61
2023-01-25T13:12:56.053Z,90.58
2023-01-25T13:15:44.432Z,90.54
2023-01-25T13:18:38.274Z,90.50
2023-01-25T13:21:32.585Z,90.44
2023-01-25T13:24:21.039Z,90.56
2023-01-25T13:27:00.805Z,90.48
2023-01-25T13:30:00.959Z,90.38
2023-01-25T13:33:07.297Z,90.53
2023-01-25T13:35:48.545Z,90.50
2023-01-25T13:38:36.904Z,90.55
2023-01-25T13:44:28.563Z,90.57
2023-01-25T13:46:59.074Z,90.49
2023-01-25T13:53:07.266Z,90.57
2023-01-25T13:55:47.683Z,90.61
2023-01-25T13:58:21.032Z,90.68
2023-01-25T14:00:56.683Z,90.50
2023-01-25T14:03:30.187Z,90.49
2023-01-25T14:06:02.625Z,90.48
2023-01-25T14:08:33.111Z,90.55
2023-01-25T14:11:03.508Z,90.42
2023-01-25T14:13:32.218Z,90.46
2023-01-25T14:16:04.507Z,90.45
2023-01-25T14:18:35.485Z,90.54
2023-01-25T14:21:17.819Z,90.55
2023-01-25T14:23:47.268Z,90.46
2023-01-25T14:26:25.089Z,90.44
2023-01-25T14:29:01.704Z,90.61
2023-01-25T14:31:36.631Z,90.45
2023-01-25T14:34:06.254Z,90.63
2023-01-25T14:36:36.036Z,90.60
2023-01-25T14:39:24.618Z,90.58
2023-01-25T14:42:01.536Z,90.55
2023-01-25T14:44:31.757Z,90.71
2023-01-25T14:47:30.863Z,90.62
2023-01-25T14:50:33.687Z,90.66
2023-01-25T14:53:10.822Z,90.60
2023-01-25T14:55:39.602Z,90.45
2023-01-25T14:58:18.148Z,90.65
2023-01-25T15:00:54.032Z,90.55
2023-01-25T15:03:23.344Z,90.61
2023-01-25T15:05:52.380Z,90.66
2023-01-25T15:08:31.473Z,90.65
2023-01-25T15:11:21.449Z,90.74
2023-01-25T15:14:02.912Z,90.74
2023-01-25T15:16:35.342Z,90.78
2023-01-25T15:19:04.040Z,90.84
2023-01-25T15:21:34.301Z,90.72
2023-01-25T15:24:07.420Z,90.73
2023-01-25T15:26:37.677Z,90.72
2023-01-25T15:29:15.229Z,90.61
2023-01-25T15:31:44.929Z,90.49
2023-01-25T15:34:18.707Z,90.40
2023-01-25T15:36:48.295Z,90.53
2023-01-25T15:39:19.449Z,90.38
2023-01-25T15:41:49.466Z,90.09
2023-01-25T15:44:20.535Z,89.94
2023-01-25T15:46:53.667Z,89.91
2023-01-25T15:49:27.723Z,89.77
2023-01-25T15:52:00.152Z,89.76
2023-01-25T15:54:28.785Z,89.78
2023-01-25T15:57:01.125Z,89.76
2023-01-25T15:59:32.877Z,89.66
2023-01-25T16:02:01.935Z,89.64
2023-01-25T16:04:30.620Z,89.66
2023-01-25T16:07:01.084Z,89.64
2023-01-25T16:09:33.363Z,89.64
2023-01-25T16:12:03.771Z,89.55
2023-01-25T16:14:35.921Z,89.52
2023-01-25T16:17:06.330Z,89.52
2023-01-25T16:19:37.363Z,89.55
2023-01-25T16:22:05.962Z,89.62
2023-01-25T16:24:34.631Z,89.44
2023-01-25T16:27:03.428Z,89.47
2023-01-25T16:29:33.581Z,89.49
2023-01-25T16:32:02.357Z,89.54
2023-01-25T16:34:31.081Z,89.39
2023-01-25T16:36:59.968Z,89.61
2023-01-25T16:39:30.180Z,89.49
2023-01-25T16:42:03.177Z,89.54
2023-01-25T16:44:33.308Z,89.58
2023-01-25T16:47:02.038Z,89.72
2023-01-25T16:49:31.108Z,89.56
2023-01-25T16:52:00.943Z,89.68
2023-01-25T16:54:30.091Z,89.70
2023-01-25T16:56:59.951Z,89.73
2023-01-25T16:59:30.673Z,89.65
2023-01-25T17:02:00.764Z,89.65
2023-01-25T17:04:30.389Z,89.72
2023-01-25T17:07:00.104Z,89.75
2023-01-25T17:09:29.744Z,89.77
2023-01-25T17:11:58.989Z,89.74
2023-01-25T17:14:27.948Z,89.73
2023-01-25T17:16:56.533Z,89.84
2023-01-25T17:19:30.682Z,89.99
2023-01-25T17:22:00.771Z,89.89
2023-01-25T17:24:30.636Z,89.97
2023-01-25T17:27:01.477Z,90.11
2023-01-25T17:29:31.101Z,90.11
2023-01-25T17:32:00.185Z,90.11
2023-01-25T17:34:31.377Z,90.22
2023-01-25T17:37:00.005Z,90.27
2023-01-25T17:39:28.633Z,90.39
2023-01-25T17:41:57.427Z,90.54
2023-01-25T17:44:26.198Z,90.70
2023-01-25T17:46:55.080Z,90.96
2023-01-25T17:49:25.036Z,91.02
2023-01-25T17:51:55.917Z,91.25
2023-01-25T17:54:24.627Z,91.45
2023-01-25T17:56:54.179Z,91.48
2023-01-25T17:59:23.026Z,91.70
2023-01-25T18:01:51.735Z,91.83
2023-01-25T18:04:20.630Z,91.95
2023-01-25T18:06:49.336Z,91.89
2023-01-25T18:09:19.697Z,92.01
2023-01-25T18:11:48.892Z,92.19
2023-01-25T18:14:18.728Z,92.39
2023-01-25T18:16:47.474Z,92.56
2023-01-25T18:19:16.224Z,92.48
2023-01-25T18:21:45.030Z,92.50
2023-01-25T18:24:34.347Z,92.62
2023-01-25T18:27:08.321Z,92.55
2023-01-25T18:29:47.715Z,92.68
2023-01-25T18:32:17.062Z,92.64
2023-01-25T18:34:46.904Z,92.70
2023-01-25T18:37:23.450Z,92.95
2023-01-25T18:39:55.687Z,92.88
2023-01-25T18:42:30.596Z,93.05
2023-01-25T18:44:59.685Z,93.14
2023-01-25T18:47:29.043Z,93.19
2023-01-25T18:50:00.939Z,92.87
2023-01-25T18:52:30.044Z,92.96
2023-01-25T18:55:00.861Z,93.11
2023-01-25T18:57:33.333Z,93.05
2023-01-25T19:00:02.296Z,93.11
2023-01-25T19:02:32.851Z,93.11
2023-01-25T19:05:02.633Z,92.94
2023-01-25T19:07:40.122Z,92.87
2023-01-25T19:10:14.338Z,93.00
2023-01-25T19:12:42.926Z,92.93
2023-01-25T19:15:12.823Z,92.88
2023-01-25T19:17:41.631Z,92.89
2023-01-25T19:20:12.225Z,92.84
2023-01-25T19:22:41.327Z,92.63
2023-01-25T19:25:12.145Z,92.70
2023-01-25T19:27:41.787Z,92.70
2023-01-25T19:30:12.142Z,92.63
2023-01-25T19:32:40.860Z,92.66
2023-01-25T19:35:10.533Z,92.69
2023-01-25T19:37:39.379Z,92.73
2023-01-25T19:40:11.430Z,92.61
2023-01-25T19:42:40.126Z,92.54
2023-01-25T19:45:10.421Z,92.60
2023-01-25T19:47:39.301Z,92.50
2023-01-25T19:50:09.997Z,92.44
2023-01-25T19:52:38.679Z,92.46
2023-01-25T19:55:10.654Z,92.52
2023-01-25T19:57:39.501Z,92.42
2023-01-25T20:00:10.104Z,92.45
2023-01-25T20:02:38.766Z,92.48
2023-01-25T20:05:08.933Z,92.57
2023-01-25T20:07:37.803Z,92.44
2023-01-25T20:10:07.957Z,92.21
2023-01-25T20:12:38.049Z,92.31
2023-01-25T20:15:08.719Z,92.43
2023-01-25T20:17:37.719Z,92.40
2023-01-25T20:20:08.662Z,92.26
2023-01-25T20:22:37.444Z,92.31
2023-01-25T20:25:08.446Z,92.33
2023-01-25T20:27:41.466Z,92.35
2023-01-25T20:30:11.954Z,92.30
2023-01-25T20:32:40.714Z,92.18
2023-01-25T20:35:10.793Z,92.35
2023-01-25T20:37:39.896Z,92.38
2023-01-25T20:40:10.536Z,92.44
2023-01-25T20:42:40.633Z,92.51
2023-01-25T20:45:17.048Z,92.50
2023-01-25T20:47:46.344Z,92.57
2023-01-25T20:50:15.430Z,92.63
2023-01-25T20:52:44.312Z,92.78
2023-01-25T20:55:13.202Z,92.91
2023-01-25T20:57:43.398Z,92.84
2023-01-25T21:00:14.303Z,93.01
2023-01-25T21:02:43.276Z,93.01
2023-01-25T21:05:12.766Z,93.26
2023-01-25T21:07:42.244Z,93.21
2023-01-25T21:10:14.054Z,93.09
2023-01-25T21:12:44.106Z,93.34
2023-01-25T21:15:17.539Z,93.59
2023-01-25T21:17:46.224Z,93.35
2023-01-25T21:20:14.874Z,93.29
2023-01-25T21:22:43.531Z,93.47
2023-01-25T21:25:12.758Z,93.48
2023-01-25T21:27:43.184Z,93.52
2023-01-25T21:30:15.700Z,93.62
2023-01-25T21:32:44.327Z,93.56
2023-01-25T21:35:12.969Z,93.62
2023-01-25T21:37:41.817Z,93.55
2023-01-25T21:40:12.092Z,93.45
2023-01-25T21:42:40.783Z,93.57
2023-01-25T21:45:29.816Z,93.46
2023-01-25T21:48:01.851Z,93.56
2023-01-25T21:50:48.079Z,93.80
2023-01-25T21:53:16.751Z,93.85
2023-01-25T21:55:46.020Z,93.89
2023-01-25T21:58:14.617Z,94.02
2023-01-25T22:00:44.575Z,94.08
2023-01-25T22:03:13.155Z,94.03
2023-01-25T22:05:41.805Z,94.13
2023-01-25T22:08:10.414Z,94.13
2023-01-25T22:10:39.002Z,94.18
2023-01-25T22:13:07.548Z,94.08
2023-01-25T22:15:36.130Z,94.26
2023-01-25T22:18:06.601Z,94.14
2023-01-25T22:20:35.195Z,94.14
2023-01-25T22:23:03.915Z,94.19
2023-01-25T22:25:32.499Z,94.34
2023-01-25T22:28:01.769Z,94.23
2023-01-25T22:30:31.213Z,94.30
2023-01-25T22:32:59.841Z,94.27
2023-01-25T22:35:29.791Z,94.16
2023-01-25T22:37:58.354Z,94.00
2023-01-25T22:40:27.050Z,93.94
2023-01-25T22:42:55.618Z,93.94
2023-01-25T22:45:24.199Z,93.89
2023-01-25T22:47:52.752Z,93.95
2023-01-25T22:50:21.380Z,93.80
2023-01-25T22:52:51.341Z,93.81
2023-01-25T22:55:19.991Z,93.68
2023-01-25T22:57:48.620Z,93.75
2023-01-25T23:00:18.681Z,93.64
2023-01-25T23:02:47.285Z,93.47
2023-01-25T23:05:16.087Z,93.32
2023-01-25T23:07:44.792Z,93.23
2023-01-25T23:10:16.418Z,93.12
2023-01-25T23:12:45.089Z,93.15
2023-01-25T23:15:15.657Z,93.14
2023-01-25T23:18:02.675Z,92.94
2023-01-25T23:20:32.319Z,93.06
2023-01-25T23:23:01.055Z,93.06
2023-01-25T23:25:32.021Z,93.02
2023-01-25T23:28:00.620Z,92.88
2023-01-25T23:30:29.167Z,92.80
2023-01-25T23:32:57.800Z,92.83
2023-01-25T23:35:27.447Z,92.95
2023-01-25T23:37:56.100Z,92.81
2023-01-25T23:40:24.731Z,92.71
2023-01-25T23:42:54.751Z,92.74
2023-01-25T23:45:23.364Z,92.67
2023-01-25T23:47:51.947Z,92.57
2023-01-25T23:50:20.701Z,92.64
2023-01-25T23:52:49.300Z,92.47
2023-01-25T23:55:18.086Z,92.41
2023-01-25T23:57:46.685Z,92.49
